Time;durP1;ratioP1;P1;durP2;ratioP2;P2;SDS_P1;SDS_P2;PMS_P1;PMS_P2;Temp;Humidity;BMP_temperature;BMP_pressure;BME280_temperature;BME280_humidity;BME280_pressure;Samples;Min_cycle;Max_cycle;Signal;HPM_P1;HPM_P2
2022/06/30 00:02:08;;;;;;;165.30;130.80;;;;;;;;;;5002126;28;20209;-52
2022/06/30 00:04:34;;;;;;;167.98;134.02;;;;;;;;;;4998732;28;20605;-52
2022/06/30 00:07:00;;;;;;;202.07;149.30;;;;;;;;;;5000360;28;20640;-52
2022/06/30 00:09:25;;;;;;;141.98;127.10;;;;;;;;;;5008613;28;20593;-54
2022/06/30 00:11:51;;;;;;;155.77;129.70;;;;;;;;;;5031307;28;20578;-54
2022/06/30 00:14:17;;;;;;;144.88;129.00;;;;;;;;;;5012879;28;20216;-54
2022/06/30 00:16:43;;;;;;;154.13;130.90;;;;;;;;;;5011150;28;20213;-54
2022/06/30 00:19:09;;;;;;;159.27;133.05;;;;;;;;;;4992729;28;20220;-54
2022/06/30 00:21:35;;;;;;;147.52;124.28;;;;;;;;;;5011092;28;20596;-54
2022/06/30 00:24:01;;;;;;;154.20;128.88;;;;;;;;;;5010665;28;20621;-54
2022/06/30 00:26:27;;;;;;;152.88;125.65;;;;;;;;;;5017789;28;20707;-54
2022/06/30 00:28:53;;;;;;;164.88;130.02;;;;;;;;;;5006509;28;20217;-55
2022/06/30 00:31:19;;;;;;;156.73;128.82;;;;;;;;;;5008778;28;20216;-54
2022/06/30 00:33:45;;;;;;;131.35;117.70;;;;;;;;;;5009664;28;20212;-54
2022/06/30 00:36:11;;;;;;;151.15;126.00;;;;;;;;;;5009264;28;20209;-54
2022/06/30 00:38:38;;;;;;;139.45;121.22;;;;;;;;;;5011406;28;20199;-54
2022/06/30 00:41:04;;;;;;;164.38;128.63;;;;;;;;;;5010598;28;20701;-54
2022/06/30 00:43:30;;;;;;;153.68;124.57;;;;;;;;;;5012108;28;20223;-54
2022/06/30 00:45:56;;;;;;;136.48;120.88;;;;;;;;;;5008871;28;20690;-54
2022/06/30 00:48:22;;;;;;;130.63;116.53;;;;;;;;;;5004871;28;20633;-54
2022/06/30 00:50:48;;;;;;;118.15;107.00;;;;;;;;;;5005119;28;20169;-54
2022/06/30 00:53:14;;;;;;;140.38;120.85;;;;;;;;;;5010471;28;20703;-54
2022/06/30 00:55:40;;;;;;;142.85;122.10;;;;;;;;;;5006573;28;20221;-54
2022/06/30 00:58:07;;;;;;;122.28;110.47;;;;;;;;;;5014234;28;20221;-54
2022/06/30 01:00:35;;;;;;;127.47;113.90;;;;;;;;;;5009811;28;20229;-54
2022/06/30 01:03:02;;;;;;;132.88;115.68;;;;;;;;;;5007780;28;20187;-54
2022/06/30 01:05:28;;;;;;;162.70;124.90;;;;;;;;;;5004996;28;20209;-54
2022/06/30 01:07:54;;;;;;;141.55;117.07;;;;;;;;;;5009919;28;20236;-54
2022/06/30 01:13:05;;;;;;;124.82;111.18;;;;;;;;;;5008817;28;20259;-54
2022/06/30 01:15:31;;;;;;;153.95;118.78;;;;;;;;;;5013193;28;20227;-54
2022/06/30 01:17:57;;;;;;;140.60;117.22;;;;;;;;;;5009117;28;20745;-54
2022/06/30 01:20:31;;;;;;;137.02;115.35;;;;;;;;;;5016549;28;20303;-54
2022/06/30 01:22:58;;;;;;;132.50;114.20;;;;;;;;;;5014696;28;20229;-54
2022/06/30 01:25:24;;;;;;;136.95;115.57;;;;;;;;;;5011842;28;20240;-54
2022/06/30 01:27:50;;;;;;;148.75;118.90;;;;;;;;;;5023963;28;20299;-54
2022/06/30 01:30:16;;;;;;;124.00;110.15;;;;;;;;;;5010551;28;20172;-55
2022/06/30 01:32:42;;;;;;;115.57;103.45;;;;;;;;;;5017686;28;20169;-54
2022/06/30 01:35:09;;;;;;;115.78;102.55;;;;;;;;;;5009683;28;20263;-54
2022/06/30 01:37:54;;;;;;;138.05;112.88;;;;;;;;;;5013341;28;20217;-54
2022/06/30 01:40:21;;;;;;;127.95;112.53;;;;;;;;;;5008140;28;20229;-54
2022/06/30 01:42:47;;;;;;;134.48;115.78;;;;;;;;;;5010044;28;20212;-54
2022/06/30 01:45:13;;;;;;;155.63;122.50;;;;;;;;;;5007282;28;20208;-54
2022/06/30 01:47:39;;;;;;;138.18;115.75;;;;;;;;;;5013665;28;20173;-54
2022/06/30 01:50:07;;;;;;;136.32;116.95;;;;;;;;;;5013848;28;20209;-54
2022/06/30 01:52:32;;;;;;;137.40;116.38;;;;;;;;;;5009699;28;20697;-54
2022/06/30 01:54:58;;;;;;;136.80;115.50;;;;;;;;;;5010284;28;20208;-54
2022/06/30 01:57:24;;;;;;;136.27;116.78;;;;;;;;;;5009650;28;20574;-54
2022/06/30 01:59:50;;;;;;;135.20;116.50;;;;;;;;;;5008118;28;20681;-54
2022/06/30 02:02:16;;;;;;;127.32;113.40;;;;;;;;;;5009737;28;20752;-54
2022/06/30 02:04:48;;;;;;;132.02;116.43;;;;;;;;;;5009984;28;20685;-54
2022/06/30 02:07:15;;;;;;;141.38;117.53;;;;;;;;;;5010039;28;20225;-54
2022/06/30 02:09:41;;;;;;;129.50;116.53;;;;;;;;;;4992521;28;20231;-54
2022/06/30 02:14:52;;;;;;;129.65;115.63;;;;;;;;;;5017518;28;20231;-54
2022/06/30 02:17:18;;;;;;;151.90;121.28;;;;;;;;;;5012696;28;20213;-54
2022/06/30 02:19:44;;;;;;;132.52;117.53;;;;;;;;;;5013467;28;20298;-54
2022/06/30 02:22:10;;;;;;;150.57;122.70;;;;;;;;;;5027175;28;20207;-54
2022/06/30 02:24:36;;;;;;;136.10;121.10;;;;;;;;;;5019876;28;20307;-54
2022/06/30 02:27:02;;;;;;;128.15;114.50;;;;;;;;;;5019324;28;20209;-54
2022/06/30 02:29:28;;;;;;;187.35;135.65;;;;;;;;;;5024265;22;20476;-49
2022/06/30 02:31:53;;;;;;;198.18;138.88;;;;;;;;;;4996054;28;20217;-50
2022/06/30 02:34:19;;;;;;;251.68;155.13;;;;;;;;;;4988692;28;20240;-51
2022/06/30 02:36:45;;;;;;;205.25;144.20;;;;;;;;;;4988887;28;20586;-50
2022/06/30 02:39:12;;;;;;;171.43;131.77;;;;;;;;;;4987786;28;20205;-50
2022/06/30 02:41:38;;;;;;;213.98;146.73;;;;;;;;;;4988436;28;20204;-50
2022/06/30 02:44:04;;;;;;;259.40;170.45;;;;;;;;;;4982424;28;20244;-50
2022/06/30 02:46:30;;;;;;;220.18;147.25;;;;;;;;;;4982511;28;20235;-49
2022/06/30 02:48:56;;;;;;;182.80;133.18;;;;;;;;;;4985795;28;20716;-49
2022/06/30 02:51:22;;;;;;;189.45;135.95;;;;;;;;;;4992063;28;20209;-50
2022/06/30 02:53:48;;;;;;;207.95;144.93;;;;;;;;;;4984206;28;20260;-51
2022/06/30 02:56:14;;;;;;;225.88;145.98;;;;;;;;;;4984827;28;20219;-49
2022/06/30 02:58:40;;;;;;;234.05;150.23;;;;;;;;;;4984642;28;20705;-50
2022/06/30 03:01:06;;;;;;;228.52;151.95;;;;;;;;;;4993153;28;20227;-50
2022/06/30 03:03:32;;;;;;;187.07;133.57;;;;;;;;;;4994855;28;20770;-49
2022/06/30 03:05:58;;;;;;;195.20;135.30;;;;;;;;;;4991320;28;20220;-50
2022/06/30 03:08:24;;;;;;;130.93;113.22;;;;;;;;;;4991563;28;20206;-51
2022/06/30 03:10:49;;;;;;;157.70;125.50;;;;;;;;;;4994288;28;20463;-49
2022/06/30 03:13:15;;;;;;;195.35;135.23;;;;;;;;;;4985595;28;20626;-51
2022/06/30 03:15:41;;;;;;;288.05;170.32;;;;;;;;;;4988037;28;20379;-49
2022/06/30 03:18:07;;;;;;;195.75;134.40;;;;;;;;;;4994811;28;20252;-49
2022/06/30 03:20:33;;;;;;;182.45;132.85;;;;;;;;;;4991667;28;20177;-50
2022/06/30 03:22:59;;;;;;;200.82;136.32;;;;;;;;;;4988458;28;20597;-51
2022/06/30 03:25:25;;;;;;;233.95;148.43;;;;;;;;;;4990483;28;20546;-50
2022/06/30 03:27:51;;;;;;;156.52;123.18;;;;;;;;;;4993339;28;20241;-49
2022/06/30 03:30:17;;;;;;;243.25;151.77;;;;;;;;;;4985471;28;20221;-50
2022/06/30 03:32:43;;;;;;;171.23;125.30;;;;;;;;;;4986381;28;20363;-50
2022/06/30 03:35:09;;;;;;;166.07;127.82;;;;;;;;;;4988035;28;20217;-50
2022/06/30 03:37:35;;;;;;;187.05;131.32;;;;;;;;;;4992065;28;20343;-50
2022/06/30 03:40:01;;;;;;;271.23;162.52;;;;;;;;;;4981148;28;20223;-50
2022/06/30 03:42:27;;;;;;;163.77;124.22;;;;;;;;;;4985619;28;20267;-49
2022/06/30 03:44:53;;;;;;;174.50;131.38;;;;;;;;;;5008237;28;20582;-50
2022/06/30 03:47:19;;;;;;;214.98;142.63;;;;;;;;;;4983576;28;20232;-49
2022/06/30 03:49:45;;;;;;;151.15;120.97;;;;;;;;;;4982399;28;20214;-50
2022/06/30 03:52:11;;;;;;;246.10;149.80;;;;;;;;;;4986723;28;20216;-49
2022/06/30 03:54:38;;;;;;;177.98;134.50;;;;;;;;;;4983537;28;20220;-49
2022/06/30 03:57:04;;;;;;;161.23;124.40;;;;;;;;;;4987929;28;20673;-51
2022/06/30 03:59:30;;;;;;;174.02;126.65;;;;;;;;;;4989886;28;20217;-50
2022/06/30 04:01:56;;;;;;;177.98;130.63;;;;;;;;;;4989778;28;20216;-51
2022/06/30 04:04:22;;;;;;;185.98;132.05;;;;;;;;;;4991615;28;20215;-50
2022/06/30 04:06:48;;;;;;;176.48;128.00;;;;;;;;;;4992585;28;20213;-51
2022/06/30 04:09:14;;;;;;;219.73;147.63;;;;;;;;;;4988116;28;20259;-50
2022/06/30 04:11:40;;;;;;;185.70;132.73;;;;;;;;;;4983236;28;20201;-50
2022/06/30 04:14:06;;;;;;;263.42;158.23;;;;;;;;;;4982410;28;20217;-49
2022/06/30 04:16:32;;;;;;;207.20;143.13;;;;;;;;;;4981724;28;20724;-50
2022/06/30 04:18:57;;;;;;;223.25;148.07;;;;;;;;;;4985404;28;20708;-50
2022/06/30 04:21:23;;;;;;;227.35;146.20;;;;;;;;;;4986939;28;20209;-51
2022/06/30 04:23:49;;;;;;;239.88;159.15;;;;;;;;;;4986979;28;20726;-50
2022/06/30 04:26:15;;;;;;;239.55;155.82;;;;;;;;;;4977665;28;20220;-50
2022/06/30 04:28:41;;;;;;;187.43;136.95;;;;;;;;;;4993303;28;20208;-50
2022/06/30 04:33:52;;;;;;;211.82;144.25;;;;;;;;;;4993835;28;20220;-50
2022/06/30 04:36:18;;;;;;;225.25;157.23;;;;;;;;;;4993445;28;20209;-50
2022/06/30 04:38:44;;;;;;;215.55;146.23;;;;;;;;;;4988973;28;20205;-50
2022/06/30 04:41:25;;;;;;;244.68;165.60;;;;;;;;;;4983098;28;20304;-51
2022/06/30 04:43:55;;;;;;;256.38;171.70;;;;;;;;;;4981470;28;20271;-49
2022/06/30 04:46:22;;;;;;;189.00;144.43;;;;;;;;;;4993218;28;20628;-51
2022/06/30 04:48:47;;;;;;;242.25;157.82;;;;;;;;;;4988056;28;20212;-49
2022/06/30 04:51:13;;;;;;;200.20;142.25;;;;;;;;;;4984773;28;20538;-50
2022/06/30 04:53:42;;;;;;;218.65;155.50;;;;;;;;;;4991147;28;21841;-50
2022/06/30 04:56:09;;;;;;;181.50;134.73;;;;;;;;;;4989557;28;20225;-50
2022/06/30 04:58:35;;;;;;;167.95;134.55;;;;;;;;;;4995538;28;20213;-48
2022/06/30 05:01:01;;;;;;;202.07;147.27;;;;;;;;;;4988195;28;20300;-49
2022/06/30 05:03:27;;;;;;;221.00;152.20;;;;;;;;;;4987281;28;20436;-49
2022/06/30 05:05:54;;;;;;;248.60;161.32;;;;;;;;;;4979387;28;20209;-50
2022/06/30 05:08:20;;;;;;;214.15;146.85;;;;;;;;;;4984111;28;20221;-50
2022/06/30 05:10:46;;;;;;;190.95;146.50;;;;;;;;;;4989601;28;20224;-50
2022/06/30 05:13:12;;;;;;;166.82;137.98;;;;;;;;;;4985511;28;20225;-50
2022/06/30 05:15:38;;;;;;;192.20;142.30;;;;;;;;;;4988119;28;20217;-50
2022/06/30 05:18:04;;;;;;;193.02;145.55;;;;;;;;;;4991769;28;20255;-52
2022/06/30 05:20:31;;;;;;;194.27;147.07;;;;;;;;;;5005394;28;20181;-52
2022/06/30 05:22:57;;;;;;;189.07;144.73;;;;;;;;;;4993476;28;20213;-53
2022/06/30 05:28:08;;;;;;;230.82;158.35;;;;;;;;;;4990434;28;20479;-53
2022/06/30 05:30:34;;;;;;;167.18;133.00;;;;;;;;;;4993824;28;20321;-52
2022/06/30 05:33:00;;;;;;;169.70;137.40;;;;;;;;;;5004783;28;20196;-51
2022/06/30 05:35:26;;;;;;;275.92;177.98;;;;;;;;;;4976168;28;20217;-53
2022/06/30 05:37:52;;;;;;;191.95;151.57;;;;;;;;;;4983180;28;20224;-52
2022/06/30 05:40:18;;;;;;;164.43;138.43;;;;;;;;;;4986471;28;20217;-54
2022/06/30 05:42:44;;;;;;;174.32;141.77;;;;;;;;;;4994146;28;20209;-53
2022/06/30 05:45:10;;;;;;;265.15;180.38;;;;;;;;;;4985377;28;20545;-53
2022/06/30 05:47:46;;;;;;;204.25;152.60;;;;;;;;;;4994239;28;20175;-53
2022/06/30 05:50:13;;;;;;;286.33;187.25;;;;;;;;;;4992283;28;20239;-52
2022/06/30 05:52:39;;;;;;;227.80;167.50;;;;;;;;;;4984188;28;20224;-53
2022/06/30 05:55:06;;;;;;;277.75;186.18;;;;;;;;;;4988195;28;20318;-52
2022/06/30 05:57:31;;;;;;;260.20;169.60;;;;;;;;;;4990212;28;20292;-53
2022/06/30 05:59:57;;;;;;;214.07;161.65;;;;;;;;;;4987682;28;20185;-53
2022/06/30 06:02:23;;;;;;;175.63;150.25;;;;;;;;;;4987594;28;20231;-53
2022/06/30 06:04:49;;;;;;;174.50;145.90;;;;;;;;;;4983740;28;20244;-53
2022/06/30 06:07:15;;;;;;;250.30;170.18;;;;;;;;;;4987908;28;20773;-54
2022/06/30 06:09:41;;;;;;;236.52;165.07;;;;;;;;;;4987077;28;21115;-52
2022/06/30 06:12:07;;;;;;;239.43;160.30;;;;;;;;;;4993036;28;20223;-52
2022/06/30 06:14:33;;;;;;;291.73;186.80;;;;;;;;;;4971423;28;20570;-53
2022/06/30 06:16:59;;;;;;;228.95;167.02;;;;;;;;;;4979428;28;20317;-52
2022/06/30 06:19:25;;;;;;;259.85;178.65;;;;;;;;;;4982698;28;20675;-53
2022/06/30 06:21:51;;;;;;;258.50;186.13;;;;;;;;;;4990562;28;20646;-50
2022/06/30 06:24:17;;;;;;;235.48;176.85;;;;;;;;;;4987946;28;20239;-50
2022/06/30 06:26:43;;;;;;;387.85;246.98;;;;;;;;;;4984967;28;20208;-50
2022/06/30 06:29:09;;;;;;;301.10;201.32;;;;;;;;;;4979682;28;20223;-50
2022/06/30 06:31:39;;;;;;;244.02;186.05;;;;;;;;;;4987005;28;20678;-50
2022/06/30 06:34:06;;;;;;;313.00;212.20;;;;;;;;;;4990065;28;20714;-48
2022/06/30 06:36:32;;;;;;;260.60;195.20;;;;;;;;;;4988259;28;20220;-51
2022/06/30 06:38:58;;;;;;;233.60;176.15;;;;;;;;;;4990579;28;20217;-50
2022/06/30 06:41:24;;;;;;;284.58;205.63;;;;;;;;;;4984364;28;20213;-51
2022/06/30 06:43:51;;;;;;;271.58;207.90;;;;;;;;;;4987205;28;20209;-50
2022/06/30 06:46:17;;;;;;;366.05;230.13;;;;;;;;;;4992906;28;20728;-49
2022/06/30 06:48:44;;;;;;;312.20;219.23;;;;;;;;;;4982252;28;20348;-51
2022/06/30 06:51:10;;;;;;;262.75;208.38;;;;;;;;;;5003347;28;20569;-52
2022/06/30 06:53:36;;;;;;;235.55;195.18;;;;;;;;;;5011031;28;20173;-52
2022/06/30 06:56:03;;;;;;;249.52;202.70;;;;;;;;;;5006793;28;20220;-50
2022/06/30 06:58:29;;;;;;;273.95;206.32;;;;;;;;;;5003349;28;20244;-51
2022/06/30 07:00:55;;;;;;;242.18;195.68;;;;;;;;;;5007482;28;20216;-50
2022/06/30 07:03:21;;;;;;;237.48;187.77;;;;;;;;;;5009690;28;21152;-50
2022/06/30 07:05:47;;;;;;;227.43;188.85;;;;;;;;;;5008865;28;20287;-50
2022/06/30 07:08:13;;;;;;;264.05;203.35;;;;;;;;;;5006322;28;20669;-50
2022/06/30 07:10:39;;;;;;;233.32;184.40;;;;;;;;;;5011320;28;20610;-49
2022/06/30 07:13:05;;;;;;;223.32;180.57;;;;;;;;;;5011917;28;20248;-49
2022/06/30 07:15:31;;;;;;;242.98;204.35;;;;;;;;;;5012483;28;20639;-51
2022/06/30 07:17:58;;;;;;;234.60;207.00;;;;;;;;;;5011649;28;20204;-52
2022/06/30 07:20:25;;;;;;;232.45;198.02;;;;;;;;;;5005906;28;20212;-50
2022/06/30 07:22:51;;;;;;;261.25;216.95;;;;;;;;;;5009630;28;20215;-52
2022/06/30 07:25:17;;;;;;;259.70;216.32;;;;;;;;;;5003444;28;20222;-52
2022/06/30 07:27:43;;;;;;;238.93;206.75;;;;;;;;;;5009403;28;20577;-52
2022/06/30 07:30:09;;;;;;;194.93;166.38;;;;;;;;;;5006754;28;20653;-51
2022/06/30 07:32:36;;;;;;;188.30;164.65;;;;;;;;;;5011333;28;20205;-52
2022/06/30 07:35:02;;;;;;;231.45;181.52;;;;;;;;;;5010542;28;20212;-51
2022/06/30 07:37:28;;;;;;;197.80;176.18;;;;;;;;;;5007554;28;20363;-51
2022/06/30 07:39:54;;;;;;;194.48;173.60;;;;;;;;;;5007754;28;20261;-52
2022/06/30 07:42:20;;;;;;;212.40;186.82;;;;;;;;;;5006417;28;20247;-53
2022/06/30 07:44:46;;;;;;;202.25;180.57;;;;;;;;;;5011087;28;20177;-52
2022/06/30 07:47:12;;;;;;;194.63;172.30;;;;;;;;;;5010553;28;20247;-53
2022/06/30 07:49:40;;;;;;;205.93;179.38;;;;;;;;;;5010688;28;20251;-52
2022/06/30 07:52:06;;;;;;;197.20;172.48;;;;;;;;;;5010059;28;20209;-53
2022/06/30 07:54:32;;;;;;;224.73;189.60;;;;;;;;;;5002101;28;20673;-52
2022/06/30 07:56:58;;;;;;;207.80;176.05;;;;;;;;;;5010502;28;20208;-52
2022/06/30 07:59:25;;;;;;;213.23;171.50;;;;;;;;;;5010440;28;20215;-52
2022/06/30 08:01:51;;;;;;;219.70;173.98;;;;;;;;;;5008748;28;20209;-52
2022/06/30 08:04:17;;;;;;;201.85;168.70;;;;;;;;;;5006380;28;20223;-52
2022/06/30 08:06:44;;;;;;;203.00;167.23;;;;;;;;;;5009853;28;20209;-53
2022/06/30 08:09:10;;;;;;;186.80;166.57;;;;;;;;;;5009960;28;20180;-52
2022/06/30 08:11:38;;;;;;;202.02;172.48;;;;;;;;;;5008172;28;20265;-52
2022/06/30 08:14:04;;;;;;;213.18;174.85;;;;;;;;;;4997009;28;20688;-52
2022/06/30 08:16:30;;;;;;;225.20;182.52;;;;;;;;;;5004899;28;20228;-53
2022/06/30 08:18:56;;;;;;;202.15;169.90;;;;;;;;;;5005199;28;20224;-52
2022/06/30 08:21:22;;;;;;;206.13;167.10;;;;;;;;;;5010041;28;20220;-52
2022/06/30 08:23:48;;;;;;;277.10;199.90;;;;;;;;;;4988273;28;20795;-54
2022/06/30 08:26:14;;;;;;;285.02;197.35;;;;;;;;;;4984527;28;20220;-51
2022/06/30 08:28:40;;;;;;;450.65;288.25;;;;;;;;;;4984261;28;20584;-52
2022/06/30 08:31:06;;;;;;;265.30;196.95;;;;;;;;;;4993776;28;20209;-54
2022/06/30 08:33:32;;;;;;;234.05;186.20;;;;;;;;;;4986396;28;20262;-53
2022/06/30 08:35:58;;;;;;;353.40;233.00;;;;;;;;;;4987008;28;20214;-53
2022/06/30 08:38:25;;;;;;;273.67;201.38;;;;;;;;;;4979898;28;20270;-53
2022/06/30 08:43:36;;;;;;;397.90;264.27;;;;;;;;;;4989705;28;20215;-54
2022/06/30 08:46:03;;;;;;;273.20;200.70;;;;;;;;;;4989855;28;20921;-53
2022/06/30 08:48:29;;;;;;;353.63;241.68;;;;;;;;;;4975197;28;20239;-53
2022/06/30 08:50:59;;;;;;;268.75;205.65;;;;;;;;;;4981359;28;20184;-54
2022/06/30 08:53:25;;;;;;;401.10;263.23;;;;;;;;;;4976742;28;20627;-54
2022/06/30 08:55:51;;;;;;;364.80;228.07;;;;;;;;;;4987342;28;20224;-54
2022/06/30 08:58:18;;;;;;;306.52;199.23;;;;;;;;;;4985320;28;20616;-53
2022/06/30 09:00:44;;;;;;;223.48;167.35;;;;;;;;;;4982364;28;20217;-54
2022/06/30 09:03:11;;;;;;;297.95;198.43;;;;;;;;;;4989052;28;20199;-53
2022/06/30 09:05:37;;;;;;;322.05;224.15;;;;;;;;;;4978653;28;20221;-53
2022/06/30 09:08:03;;;;;;;320.35;226.65;;;;;;;;;;4995630;28;20225;-52
2022/06/30 09:10:29;;;;;;;351.92;233.95;;;;;;;;;;4981799;28;20229;-52
2022/06/30 09:12:57;;;;;;;330.00;207.85;;;;;;;;;;4985900;28;20221;-54
2022/06/30 09:15:23;;;;;;;460.90;262.88;;;;;;;;;;4974683;28;20950;-53
2022/06/30 09:17:49;;;;;;;289.52;199.55;;;;;;;;;;4977765;28;20204;-53
2022/06/30 09:20:15;;;;;;;282.20;191.88;;;;;;;;;;4976312;28;20232;-53
2022/06/30 09:22:41;;;;;;;370.83;218.10;;;;;;;;;;4978437;28;20225;-52
2022/06/30 09:25:09;;;;;;;248.23;184.98;;;;;;;;;;4988337;28;20414;-53
2022/06/30 09:27:36;;;;;;;262.13;195.18;;;;;;;;;;4989482;28;20220;-53
2022/06/30 09:30:15;;;;;;;349.10;223.77;;;;;;;;;;4989311;28;20215;-52
2022/06/30 09:32:47;;;;;;;327.83;223.68;;;;;;;;;;4968793;28;22479;-54
2022/06/30 09:35:13;;;;;;;303.40;205.18;;;;;;;;;;4981334;28;20225;-53
2022/06/30 09:37:39;;;;;;;299.65;220.82;;;;;;;;;;4978599;28;20320;-53
2022/06/30 09:40:07;;;;;;;279.45;198.23;;;;;;;;;;4996360;28;20213;-52
2022/06/30 09:42:50;;;;;;;431.33;263.38;;;;;;;;;;4976111;28;20419;-53
2022/06/30 09:45:32;;;;;;;359.30;244.65;;;;;;;;;;4986456;28;20372;-53
2022/06/30 09:47:58;;;;;;;411.17;268.05;;;;;;;;;;4986634;28;20204;-54
2022/06/30 09:50:24;;;;;;;443.00;274.13;;;;;;;;;;4968632;28;20220;-54
2022/06/30 09:53:03;;;;;;;481.52;299.83;;;;;;;;;;4979372;28;20989;-55
2022/06/30 09:55:45;;;;;;;370.90;269.83;;;;;;;;;;4979926;28;20763;-54
2022/06/30 09:58:13;;;;;;;397.80;268.45;;;;;;;;;;4983231;28;20371;-53
2022/06/30 10:00:47;;;;;;;332.42;251.93;;;;;;;;;;4982674;28;20236;-54
2022/06/30 10:03:13;;;;;;;361.70;265.80;;;;;;;;;;4984633;28;20719;-54
2022/06/30 10:05:44;;;;;;;370.08;268.27;;;;;;;;;;4969231;28;20227;-55
2022/06/30 10:08:11;;;;;;;353.20;266.80;;;;;;;;;;4991218;28;20626;-53
2022/06/30 10:10:37;;;;;;;348.52;263.17;;;;;;;;;;4985428;28;20685;-55
2022/06/30 10:13:03;;;;;;;418.52;280.77;;;;;;;;;;4978952;28;20208;-55
2022/06/30 10:15:32;;;;;;;421.60;291.70;;;;;;;;;;4975203;28;22190;-53
2022/06/30 10:17:59;;;;;;;317.60;258.40;;;;;;;;;;4981488;28;20213;-54
2022/06/30 10:20:28;;;;;;;415.17;281.95;;;;;;;;;;4982014;28;20213;-53
2022/06/30 10:22:54;;;;;;;504.27;313.45;;;;;;;;;;4962729;28;20212;-54
2022/06/30 10:25:20;;;;;;;370.90;261.73;;;;;;;;;;4968790;28;20209;-52
2022/06/30 10:27:47;;;;;;;319.05;257.50;;;;;;;;;;4977791;28;25182;-53
2022/06/30 10:30:15;;;;;;;534.58;332.75;;;;;;;;;;4982235;28;20288;-53
2022/06/30 10:32:54;;;;;;;322.52;257.95;;;;;;;;;;4987634;28;20271;-52
2022/06/30 10:35:37;;;;;;;426.27;286.88;;;;;;;;;;4975631;28;20252;-54
2022/06/30 10:38:25;;;;;;;466.80;284.60;;;;;;;;;;4970674;28;20225;-53
2022/06/30 10:41:10;;;;;;;382.10;260.23;;;;;;;;;;4984850;28;20225;-52
2022/06/30 10:43:56;;;;;;;335.08;249.90;;;;;;;;;;4990148;28;20710;-54
2022/06/30 10:46:22;;;;;;;350.60;272.95;;;;;;;;;;4984453;28;20878;-53
2022/06/30 10:48:53;;;;;;;343.98;268.20;;;;;;;;;;4986555;28;20274;-53
2022/06/30 10:51:19;;;;;;;338.17;261.05;;;;;;;;;;4976742;28;20896;-54
2022/06/30 10:53:45;;;;;;;344.02;248.77;;;;;;;;;;4994653;28;20178;-53
2022/06/30 10:56:11;;;;;;;438.98;301.00;;;;;;;;;;4978291;28;20225;-53
2022/06/30 10:58:57;;;;;;;282.15;230.30;;;;;;;;;;4992095;28;20259;-54
2022/06/30 11:01:23;;;;;;;279.70;223.30;;;;;;;;;;4987396;28;20311;-54
2022/06/30 11:03:53;;;;;;;292.52;237.63;;;;;;;;;;4988950;28;20232;-52
2022/06/30 11:06:21;;;;;;;363.30;253.18;;;;;;;;;;4991300;28;20200;-54
2022/06/30 11:08:49;;;;;;;251.75;218.55;;;;;;;;;;4992805;28;20355;-55
2022/06/30 11:11:21;;;;;;;300.83;238.25;;;;;;;;;;4988973;28;20227;-52
2022/06/30 11:13:47;;;;;;;324.10;251.63;;;;;;;;;;4988093;28;20273;-54
2022/06/30 11:16:14;;;;;;;363.98;267.35;;;;;;;;;;4986738;28;20863;-52
2022/06/30 11:18:40;;;;;;;332.63;240.23;;;;;;;;;;4985355;28;20707;-53
2022/06/30 11:21:06;;;;;;;300.02;231.35;;;;;;;;;;4985189;28;20178;-53
2022/06/30 11:23:39;;;;;;;309.67;236.38;;;;;;;;;;4991237;28;20951;-54
2022/06/30 11:28:52;;;;;;;292.38;237.00;;;;;;;;;;4990368;28;20716;-52
2022/06/30 11:31:32;;;;;;;278.05;222.23;;;;;;;;;;4990356;28;20244;-54
2022/06/30 11:34:07;;;;;;;313.02;247.75;;;;;;;;;;4988947;28;23873;-54
2022/06/30 11:36:37;;;;;;;280.38;225.52;;;;;;;;;;4985999;28;20230;-54
2022/06/30 11:39:05;;;;;;;393.45;270.42;;;;;;;;;;4981478;28;20303;-54
2022/06/30 11:44:16;;;;;;;220.65;196.00;;;;;;;;;;5011554;28;20242;-53
2022/06/30 11:46:50;;;;;;;226.18;201.68;;;;;;;;;;5011352;28;20581;-53
2022/06/30 11:49:16;;;;;;;266.00;225.30;;;;;;;;;;5010904;28;20284;-52
2022/06/30 11:51:43;;;;;;;264.95;235.27;;;;;;;;;;5011361;28;20213;-52
2022/06/30 11:54:09;;;;;;;259.17;228.98;;;;;;;;;;5011685;28;20199;-53
2022/06/30 11:56:45;;;;;;;290.95;246.70;;;;;;;;;;5010838;28;20219;-51
2022/06/30 11:59:11;;;;;;;286.40;245.10;;;;;;;;;;5006452;28;20781;-53
2022/06/30 12:01:37;;;;;;;264.48;236.23;;;;;;;;;;5011466;28;20346;-53
2022/06/30 12:04:13;;;;;;;300.73;250.25;;;;;;;;;;5011552;28;20208;-53
2022/06/30 12:06:39;;;;;;;294.52;243.73;;;;;;;;;;4998284;28;20329;-53
2022/06/30 12:09:05;;;;;;;286.58;246.30;;;;;;;;;;5002833;28;20201;-52
2022/06/30 12:11:31;;;;;;;314.17;258.92;;;;;;;;;;5009652;28;20295;-53
2022/06/30 12:13:57;;;;;;;313.40;258.27;;;;;;;;;;5005939;28;20691;-52
2022/06/30 12:16:23;;;;;;;308.45;258.45;;;;;;;;;;5011069;28;20252;-53
2022/06/30 12:18:48;;;;;;;308.85;260.02;;;;;;;;;;5010512;28;20331;-52
2022/06/30 12:21:14;;;;;;;316.50;266.70;;;;;;;;;;5010410;28;20177;-52
2022/06/30 12:23:42;;;;;;;316.02;265.17;;;;;;;;;;5011542;28;20173;-51
2022/06/30 12:26:08;;;;;;;331.05;279.92;;;;;;;;;;5010902;28;20225;-53
2022/06/30 12:28:57;;;;;;;318.90;275.83;;;;;;;;;;5013952;28;20704;-53
2022/06/30 12:31:27;;;;;;;323.48;276.58;;;;;;;;;;5000442;28;20240;-53
2022/06/30 12:33:54;;;;;;;291.42;258.20;;;;;;;;;;5006795;28;20213;-53
2022/06/30 12:36:21;;;;;;;315.63;266.23;;;;;;;;;;5010310;28;20197;-53
2022/06/30 12:38:47;;;;;;;307.17;269.17;;;;;;;;;;5011498;28;20201;-52
2022/06/30 12:41:13;;;;;;;324.88;273.05;;;;;;;;;;5010584;28;20216;-52
2022/06/30 12:43:46;;;;;;;298.05;266.02;;;;;;;;;;5010769;28;20201;-53
2022/06/30 12:46:12;;;;;;;329.13;285.08;;;;;;;;;;5010523;28;20295;-53
2022/06/30 12:48:48;;;;;;;316.15;280.52;;;;;;;;;;5010732;28;20208;-53
2022/06/30 12:51:39;;;;;;;322.60;277.05;;;;;;;;;;5011040;28;20236;-51
2022/06/30 12:54:12;;;;;;;304.58;270.58;;;;;;;;;;5006350;28;20272;-52
2022/06/30 12:56:39;;;;;;;339.15;283.45;;;;;;;;;;5014632;28;20228;-51
2022/06/30 12:59:06;;;;;;;358.25;296.65;;;;;;;;;;5002125;28;20815;-51
2022/06/30 13:01:34;;;;;;;351.17;293.73;;;;;;;;;;5008462;28;20212;-51
2022/06/30 13:04:03;;;;;;;385.13;312.63;;;;;;;;;;5002090;28;20932;-51
2022/06/30 13:06:37;;;;;;;378.48;314.10;;;;;;;;;;5000512;28;20229;-50
2022/06/30 13:09:11;;;;;;;384.13;313.60;;;;;;;;;;4998326;28;20216;-51
2022/06/30 13:11:38;;;;;;;408.95;324.92;;;;;;;;;;4996316;28;20347;-50
2022/06/30 13:14:04;;;;;;;378.25;320.23;;;;;;;;;;4998054;28;20220;-52
2022/06/30 13:16:33;;;;;;;375.85;320.25;;;;;;;;;;4997224;28;20295;-50
2022/06/30 13:19:00;;;;;;;369.65;322.98;;;;;;;;;;4993239;28;20221;-51
2022/06/30 13:21:27;;;;;;;373.15;321.45;;;;;;;;;;5000986;28;20219;-52
2022/06/30 13:23:53;;;;;;;407.38;333.83;;;;;;;;;;4986918;28;20197;-53
2022/06/30 13:26:19;;;;;;;484.58;373.02;;;;;;;;;;4980726;28;20315;-52
2022/06/30 13:28:45;;;;;;;419.30;343.85;;;;;;;;;;4983189;28;20212;-53
2022/06/30 13:31:11;;;;;;;439.50;349.95;;;;;;;;;;4992760;28;20355;-53
2022/06/30 13:33:40;;;;;;;457.30;353.73;;;;;;;;;;4979366;28;20266;-53
2022/06/30 13:36:06;;;;;;;354.02;306.23;;;;;;;;;;4982941;28;20205;-51
2022/06/30 13:38:32;;;;;;;355.73;316.23;;;;;;;;;;4990939;28;20660;-51
2022/06/30 13:40:58;;;;;;;346.88;306.45;;;;;;;;;;4990771;28;20216;-51
2022/06/30 13:43:24;;;;;;;393.98;331.42;;;;;;;;;;4992611;28;20546;-55
2022/06/30 13:45:51;;;;;;;395.45;327.30;;;;;;;;;;4981093;28;20217;-55
2022/06/30 13:48:17;;;;;;;377.05;321.17;;;;;;;;;;4979967;28;20196;-55
2022/06/30 13:50:43;;;;;;;420.38;361.77;;;;;;;;;;4992199;28;20730;-55
2022/06/30 13:53:08;;;;;;;389.33;346.80;;;;;;;;;;4992464;28;20235;-55
2022/06/30 13:55:34;;;;;;;410.25;345.33;;;;;;;;;;4986134;28;20226;-55
2022/06/30 13:58:01;;;;;;;395.08;342.40;;;;;;;;;;4985086;28;20225;-55
2022/06/30 14:00:27;;;;;;;409.67;347.45;;;;;;;;;;4988888;28;20221;-55
2022/06/30 14:02:53;;;;;;;391.80;341.00;;;;;;;;;;4994578;28;20185;-55
2022/06/30 14:05:19;;;;;;;405.15;349.90;;;;;;;;;;4992893;28;20673;-56
2022/06/30 14:07:45;;;;;;;397.67;353.67;;;;;;;;;;4983602;28;20258;-56
2022/06/30 14:10:12;;;;;;;400.40;350.52;;;;;;;;;;4983094;28;20240;-55
2022/06/30 14:12:40;;;;;;;419.17;354.02;;;;;;;;;;4994518;28;20240;-55